sensor_id;sensor_type;location;lat;lon;timestamp;P1;durP1;ratioP1;P2;durP2;ratioP2
4652;SDS011;9900;48.738;9.306;2023-03-14T00:02:34;0.90;;;0.50;;
4652;SDS011;9900;48.738;9.306;2023-03-14T00:05:03;1.10;;;0.60;;
4652;SDS011;9900;48.738;9.306;2023-03-14T00:07:34;1.10;;;0.80;;
4652;SDS011;9900;48.738;9.306;2023-03-14T00:10:03;0.90;;;0.60;;
4652;SDS011;9900;48.738;9.306;2023-03-14T00:12:33;2.10;;;0.70;;
4652;SDS011;9900;48.738;9.306;2023-03-14T00:15:02;1.90;;;0.90;;
4652;SDS011;9900;48.738;9.306;2023-03-14T00:17:31;1.13;;;0.73;;
4652;SDS011;9900;48.738;9.306;2023-03-14T00:20:01;0.70;;;0.60;;
4652;SDS011;9900;48.738;9.306;2023-03-14T00:22:35;0.70;;;0.60;;
4652;SDS011;9900;48.738;9.306;2023-03-14T00:25:04;1.00;;;0.60;;
4652;SDS011;9900;48.738;9.306;2023-03-14T00:27:34;1.90;;;1.60;;
4652;SDS011;9900;48.738;9.306;2023-03-14T00:30:04;0.80;;;0.60;;
4652;SDS011;9900;48.738;9.306;2023-03-14T00:32:34;0.80;;;0.60;;
4652;SDS011;9900;48.738;9.306;2023-03-14T00:35:05;0.83;;;0.60;;
4652;SDS011;9900;48.738;9.306;2023-03-14T00:37:34;0.60;;;0.50;;
4652;SDS011;9900;48.738;9.306;2023-03-14T00:40:03;0.80;;;0.60;;
4652;SDS011;9900;48.738;9.306;2023-03-14T00:42:34;0.70;;;0.60;;
4652;SDS011;9900;48.738;9.306;2023-03-14T00:45:03;0.73;;;0.70;;
4652;SDS011;9900;48.738;9.306;2023-03-14T00:47:32;0.80;;;0.60;;
4652;SDS011;9900;48.738;9.306;2023-03-14T00:50:01;0.70;;;0.60;;
4652;SDS011;9900;48.738;9.306;2023-03-14T00:52:31;1.13;;;0.70;;
4652;SDS011;9900;48.738;9.306;2023-03-14T00:55:00;0.90;;;0.60;;
4652;SDS011;9900;48.738;9.306;2023-03-14T00:57:28;1.90;;;0.67;;
4652;SDS011;9900;48.738;9.306;2023-03-14T00:59:57;0.63;;;0.60;;
4652;SDS011;9900;48.738;9.306;2023-03-14T01:02:26;1.43;;;0.60;;
4652;SDS011;9900;48.738;9.306;2023-03-14T01:04:54;0.70;;;0.60;;
4652;SDS011;9900;48.738;9.306;2023-03-14T01:07:23;1.10;;;0.70;;
4652;SDS011;9900;48.738;9.306;2023-03-14T01:09:54;0.70;;;0.60;;
4652;SDS011;9900;48.738;9.306;2023-03-14T01:12:22;7.23;;;0.80;;
4652;SDS011;9900;48.738;9.306;2023-03-14T01:14:51;0.87;;;0.80;;
4652;SDS011;9900;48.738;9.306;2023-03-14T01:17:19;0.70;;;0.67;;
4652;SDS011;9900;48.738;9.306;2023-03-14T01:19:48;0.80;;;0.63;;
4652;SDS011;9900;48.738;9.306;2023-03-14T01:22:17;2.03;;;0.50;;
4652;SDS011;9900;48.738;9.306;2023-03-14T01:24:46;1.20;;;0.83;;
4652;SDS011;9900;48.738;9.306;2023-03-14T01:27:16;1.83;;;0.73;;
4652;SDS011;9900;48.738;9.306;2023-03-14T01:29:44;1.30;;;0.63;;
4652;SDS011;9900;48.738;9.306;2023-03-14T01:32:14;0.70;;;0.60;;
4652;SDS011;9900;48.738;9.306;2023-03-14T01:34:42;0.60;;;0.60;;
4652;SDS011;9900;48.738;9.306;2023-03-14T01:37:11;1.53;;;0.70;;
4652;SDS011;9900;48.738;9.306;2023-03-14T01:39:40;1.43;;;0.80;;
4652;SDS011;9900;48.738;9.306;2023-03-14T01:42:08;2.13;;;0.97;;
4652;SDS011;9900;48.738;9.306;2023-03-14T01:44:48;0.70;;;0.67;;
4652;SDS011;9900;48.738;9.306;2023-03-14T01:47:18;2.03;;;0.83;;
4652;SDS011;9900;48.738;9.306;2023-03-14T01:49:47;0.93;;;0.70;;
4652;SDS011;9900;48.738;9.306;2023-03-14T01:52:18;1.77;;;0.90;;
4652;SDS011;9900;48.738;9.306;2023-03-14T01:54:49;1.63;;;0.60;;
4652;SDS011;9900;48.738;9.306;2023-03-14T01:57:20;1.17;;;1.07;;
4652;SDS011;9900;48.738;9.306;2023-03-14T01:59:52;1.80;;;0.80;;
4652;SDS011;9900;48.738;9.306;2023-03-14T02:02:23;1.73;;;0.73;;
4652;SDS011;9900;48.738;9.306;2023-03-14T02:04:53;1.83;;;1.10;;
4652;SDS011;9900;48.738;9.306;2023-03-14T02:07:23;0.80;;;0.70;;
4652;SDS011;9900;48.738;9.306;2023-03-14T02:09:53;1.33;;;0.60;;
4652;SDS011;9900;48.738;9.306;2023-03-14T02:12:22;3.13;;;0.60;;
4652;SDS011;9900;48.738;9.306;2023-03-14T02:14:53;0.60;;;0.50;;
4652;SDS011;9900;48.738;9.306;2023-03-14T02:17:21;2.07;;;0.70;;
4652;SDS011;9900;48.738;9.306;2023-03-14T02:19:54;0.77;;;0.50;;
4652;SDS011;9900;48.738;9.306;2023-03-14T02:22:29;0.93;;;0.63;;
4652;SDS011;9900;48.738;9.306;2023-03-14T02:24:59;0.70;;;0.57;;
4652;SDS011;9900;48.738;9.306;2023-03-14T02:27:33;0.80;;;0.40;;
4652;SDS011;9900;48.738;9.306;2023-03-14T02:30:04;0.93;;;0.50;;
4652;SDS011;9900;48.738;9.306;2023-03-14T02:32:34;0.70;;;0.50;;
4652;SDS011;9900;48.738;9.306;2023-03-14T02:35:05;0.60;;;0.50;;
4652;SDS011;9900;48.738;9.306;2023-03-14T02:37:36;0.60;;;0.60;;
4652;SDS011;9900;48.738;9.306;2023-03-14T02:40:08;0.60;;;0.50;;
4652;SDS011;9900;48.738;9.306;2023-03-14T02:42:38;0.60;;;0.50;;
4652;SDS011;9900;48.738;9.306;2023-03-14T02:45:27;1.23;;;0.63;;
4652;SDS011;9900;48.738;9.306;2023-03-14T02:48:05;1.70;;;0.50;;
4652;SDS011;9900;48.738;9.306;2023-03-14T02:50:35;0.60;;;0.40;;
4652;SDS011;9900;48.738;9.306;2023-03-14T02:53:04;1.57;;;0.60;;
4652;SDS011;9900;48.738;9.306;2023-03-14T02:55:33;0.60;;;0.50;;
4652;SDS011;9900;48.738;9.306;2023-03-14T02:58:03;0.90;;;0.60;;
4652;SDS011;9900;48.738;9.306;2023-03-14T03:00:31;1.80;;;0.50;;
4652;SDS011;9900;48.738;9.306;2023-03-14T03:03:00;1.10;;;0.47;;
4652;SDS011;9900;48.738;9.306;2023-03-14T03:05:29;1.93;;;0.60;;
4652;SDS011;9900;48.738;9.306;2023-03-14T03:07:58;1.47;;;0.80;;
4652;SDS011;9900;48.738;9.306;2023-03-14T03:10:27;3.13;;;0.50;;
4652;SDS011;9900;48.738;9.306;2023-03-14T03:12:56;0.73;;;0.50;;
4652;SDS011;9900;48.738;9.306;2023-03-14T03:15:26;0.63;;;0.50;;
4652;SDS011;9900;48.738;9.306;2023-03-14T03:17:55;0.60;;;0.50;;
4652;SDS011;9900;48.738;9.306;2023-03-14T03:20:24;0.60;;;0.40;;
4652;SDS011;9900;48.738;9.306;2023-03-14T03:22:52;0.93;;;0.50;;
4652;SDS011;9900;48.738;9.306;2023-03-14T03:25:21;1.37;;;0.60;;
4652;SDS011;9900;48.738;9.306;2023-03-14T03:27:50;0.60;;;0.50;;
4652;SDS011;9900;48.738;9.306;2023-03-14T03:30:18;0.90;;;0.50;;
4652;SDS011;9900;48.738;9.306;2023-03-14T03:32:49;1.60;;;0.60;;
4652;SDS011;9900;48.738;9.306;2023-03-14T03:35:17;0.60;;;0.50;;
4652;SDS011;9900;48.738;9.306;2023-03-14T03:37:46;0.63;;;0.40;;
4652;SDS011;9900;48.738;9.306;2023-03-14T03:40:15;2.03;;;0.60;;
4652;SDS011;9900;48.738;9.306;2023-03-14T03:42:44;0.80;;;0.50;;
4652;SDS011;9900;48.738;9.306;2023-03-14T03:45:12;1.93;;;0.80;;
4652;SDS011;9900;48.738;9.306;2023-03-14T03:47:41;1.27;;;0.50;;
4652;SDS011;9900;48.738;9.306;2023-03-14T03:50:11;2.07;;;0.60;;
4652;SDS011;9900;48.738;9.306;2023-03-14T03:52:40;1.10;;;0.70;;
4652;SDS011;9900;48.738;9.306;2023-03-14T03:55:08;2.70;;;0.70;;
4652;SDS011;9900;48.738;9.306;2023-03-14T03:57:37;1.63;;;0.80;;
4652;SDS011;9900;48.738;9.306;2023-03-14T04:00:06;1.37;;;0.60;;
4652;SDS011;9900;48.738;9.306;2023-03-14T04:02:39;3.27;;;0.70;;
4652;SDS011;9900;48.738;9.306;2023-03-14T04:05:08;2.80;;;0.73;;
4652;SDS011;9900;48.738;9.306;2023-03-14T04:07:38;2.00;;;0.93;;
4652;SDS011;9900;48.738;9.306;2023-03-14T04:10:07;1.77;;;0.90;;
4652;SDS011;9900;48.738;9.306;2023-03-14T04:12:36;1.30;;;0.70;;
4652;SDS011;9900;48.738;9.306;2023-03-14T04:15:05;2.87;;;0.70;;
4652;SDS011;9900;48.738;9.306;2023-03-14T04:17:35;1.43;;;0.60;;
4652;SDS011;9900;48.738;9.306;2023-03-14T04:20:04;4.20;;;0.70;;
4652;SDS011;9900;48.738;9.306;2023-03-14T04:22:39;4.50;;;0.80;;
4652;SDS011;9900;48.738;9.306;2023-03-14T04:25:10;1.67;;;0.77;;
4652;SDS011;9900;48.738;9.306;2023-03-14T04:27:39;1.47;;;0.57;;
4652;SDS011;9900;48.738;9.306;2023-03-14T04:30:08;1.80;;;0.57;;
4652;SDS011;9900;48.738;9.306;2023-03-14T04:32:38;1.47;;;0.60;;
4652;SDS011;9900;48.738;9.306;2023-03-14T04:35:07;3.43;;;0.80;;
4652;SDS011;9900;48.738;9.306;2023-03-14T04:37:36;1.50;;;0.67;;
4652;SDS011;9900;48.738;9.306;2023-03-14T04:40:07;1.60;;;0.70;;
4652;SDS011;9900;48.738;9.306;2023-03-14T04:42:37;3.70;;;0.90;;
4652;SDS011;9900;48.738;9.306;2023-03-14T04:45:06;1.57;;;0.70;;
4652;SDS011;9900;48.738;9.306;2023-03-14T04:47:35;1.07;;;0.67;;
4652;SDS011;9900;48.738;9.306;2023-03-14T04:50:04;1.83;;;0.60;;
4652;SDS011;9900;48.738;9.306;2023-03-14T04:52:33;1.90;;;0.70;;
4652;SDS011;9900;48.738;9.306;2023-03-14T04:55:02;2.23;;;0.80;;
4652;SDS011;9900;48.738;9.306;2023-03-14T04:57:32;1.83;;;0.80;;
4652;SDS011;9900;48.738;9.306;2023-03-14T05:00:01;3.20;;;0.90;;
4652;SDS011;9900;48.738;9.306;2023-03-14T05:02:33;3.47;;;0.70;;
4652;SDS011;9900;48.738;9.306;2023-03-14T05:05:02;2.70;;;0.80;;
4652;SDS011;9900;48.738;9.306;2023-03-14T05:07:31;2.60;;;0.90;;
4652;SDS011;9900;48.738;9.306;2023-03-14T05:09:59;1.63;;;0.67;;
4652;SDS011;9900;48.738;9.306;2023-03-14T05:12:28;0.60;;;0.50;;
4652;SDS011;9900;48.738;9.306;2023-03-14T05:14:58;1.17;;;0.60;;
4652;SDS011;9900;48.738;9.306;2023-03-14T05:17:27;3.67;;;0.80;;
4652;SDS011;9900;48.738;9.306;2023-03-14T05:19:55;2.70;;;0.90;;
4652;SDS011;9900;48.738;9.306;2023-03-14T05:22:24;1.20;;;0.90;;
4652;SDS011;9900;48.738;9.306;2023-03-14T05:24:53;2.90;;;0.77;;
4652;SDS011;9900;48.738;9.306;2023-03-14T05:27:23;3.30;;;1.43;;
4652;SDS011;9900;48.738;9.306;2023-03-14T05:29:52;3.60;;;0.90;;
4652;SDS011;9900;48.738;9.306;2023-03-14T05:32:22;3.60;;;1.00;;
4652;SDS011;9900;48.738;9.306;2023-03-14T05:34:51;2.40;;;0.90;;
4652;SDS011;9900;48.738;9.306;2023-03-14T05:37:20;4.10;;;2.53;;
4652;SDS011;9900;48.738;9.306;2023-03-14T05:39:48;7.70;;;3.63;;
4652;SDS011;9900;48.738;9.306;2023-03-14T05:42:17;6.53;;;3.30;;
4652;SDS011;9900;48.738;9.306;2023-03-14T05:44:45;5.80;;;3.00;;
4652;SDS011;9900;48.738;9.306;2023-03-14T05:47:14;14.83;;;5.30;;
4652;SDS011;9900;48.738;9.306;2023-03-14T05:49:44;7.07;;;4.00;;
4652;SDS011;9900;48.738;9.306;2023-03-14T05:52:13;11.53;;;4.37;;
4652;SDS011;9900;48.738;9.306;2023-03-14T05:54:41;6.17;;;2.20;;
4652;SDS011;9900;48.738;9.306;2023-03-14T05:57:10;3.37;;;1.90;;
4652;SDS011;9900;48.738;9.306;2023-03-14T05:59:39;8.50;;;2.40;;
4652;SDS011;9900;48.738;9.306;2023-03-14T06:02:08;4.07;;;1.57;;
4652;SDS011;9900;48.738;9.306;2023-03-14T06:04:36;3.67;;;1.70;;
4652;SDS011;9900;48.738;9.306;2023-03-14T06:07:06;5.20;;;1.10;;
4652;SDS011;9900;48.738;9.306;2023-03-14T06:09:35;2.07;;;1.40;;
4652;SDS011;9900;48.738;9.306;2023-03-14T06:12:04;4.63;;;2.23;;
4652;SDS011;9900;48.738;9.306;2023-03-14T06:14:33;4.30;;;2.10;;
4652;SDS011;9900;48.738;9.306;2023-03-14T06:17:01;4.07;;;2.20;;
4652;SDS011;9900;48.738;9.306;2023-03-14T06:19:30;5.47;;;2.10;;
4652;SDS011;9900;48.738;9.306;2023-03-14T06:21:59;6.20;;;2.47;;
4652;SDS011;9900;48.738;9.306;2023-03-14T06:24:31;4.63;;;2.13;;
4652;SDS011;9900;48.738;9.306;2023-03-14T06:27:02;5.00;;;2.27;;
4652;SDS011;9900;48.738;9.306;2023-03-14T06:29:31;3.47;;;1.63;;
4652;SDS011;9900;48.738;9.306;2023-03-14T06:32:00;2.73;;;1.20;;
4652;SDS011;9900;48.738;9.306;2023-03-14T06:34:28;3.53;;;1.30;;
4652;SDS011;9900;48.738;9.306;2023-03-14T06:36:57;4.70;;;1.23;;
4652;SDS011;9900;48.738;9.306;2023-03-14T06:39:26;5.63;;;1.43;;
4652;SDS011;9900;48.738;9.306;2023-03-14T06:41:59;2.60;;;1.67;;
4652;SDS011;9900;48.738;9.306;2023-03-14T06:44:28;4.17;;;1.40;;
4652;SDS011;9900;48.738;9.306;2023-03-14T06:46:56;1.67;;;0.90;;
4652;SDS011;9900;48.738;9.306;2023-03-14T06:49:25;5.23;;;1.70;;
4652;SDS011;9900;48.738;9.306;2023-03-14T06:51:54;3.93;;;1.40;;
4652;SDS011;9900;48.738;9.306;2023-03-14T06:54:23;4.60;;;1.73;;
4652;SDS011;9900;48.738;9.306;2023-03-14T06:56:52;6.10;;;1.27;;
4652;SDS011;9900;48.738;9.306;2023-03-14T06:59:22;4.00;;;1.20;;
4652;SDS011;9900;48.738;9.306;2023-03-14T07:01:50;4.68;;;1.00;;
4652;SDS011;9900;48.738;9.306;2023-03-14T07:04:19;3.87;;;1.40;;
4652;SDS011;9900;48.738;9.306;2023-03-14T07:06:48;4.63;;;1.07;;
4652;SDS011;9900;48.738;9.306;2023-03-14T07:09:16;3.27;;;0.87;;
4652;SDS011;9900;48.738;9.306;2023-03-14T07:11:45;1.53;;;0.70;;
4652;SDS011;9900;48.738;9.306;2023-03-14T07:14:14;3.77;;;0.70;;
4652;SDS011;9900;48.738;9.306;2023-03-14T07:16:44;3.13;;;0.87;;
4652;SDS011;9900;48.738;9.306;2023-03-14T07:19:13;4.53;;;1.20;;
4652;SDS011;9900;48.738;9.306;2023-03-14T07:21:41;5.43;;;0.83;;
4652;SDS011;9900;48.738;9.306;2023-03-14T07:24:10;4.50;;;0.90;;
4652;SDS011;9900;48.738;9.306;2023-03-14T07:26:40;3.53;;;1.23;;
4652;SDS011;9900;48.738;9.306;2023-03-14T07:29:08;3.53;;;0.90;;
4652;SDS011;9900;48.738;9.306;2023-03-14T07:31:37;3.50;;;0.97;;
4652;SDS011;9900;48.738;9.306;2023-03-14T07:34:07;2.40;;;1.03;;
4652;SDS011;9900;48.738;9.306;2023-03-14T07:36:36;1.27;;;0.80;;
4652;SDS011;9900;48.738;9.306;2023-03-14T07:39:05;1.73;;;0.80;;
4652;SDS011;9900;48.738;9.306;2023-03-14T07:41:34;1.10;;;0.70;;
4652;SDS011;9900;48.738;9.306;2023-03-14T07:44:03;1.27;;;0.83;;
4652;SDS011;9900;48.738;9.306;2023-03-14T07:46:31;2.00;;;0.70;;
4652;SDS011;9900;48.738;9.306;2023-03-14T07:49:00;4.03;;;0.90;;
4652;SDS011;9900;48.738;9.306;2023-03-14T07:51:30;3.40;;;0.80;;
4652;SDS011;9900;48.738;9.306;2023-03-14T07:53:59;2.20;;;1.00;;
4652;SDS011;9900;48.738;9.306;2023-03-14T07:56:28;3.13;;;1.00;;
4652;SDS011;9900;48.738;9.306;2023-03-14T07:58:56;1.03;;;0.70;;
4652;SDS011;9900;48.738;9.306;2023-03-14T08:01:25;2.00;;;0.73;;
4652;SDS011;9900;48.738;9.306;2023-03-14T08:03:54;1.97;;;0.80;;
4652;SDS011;9900;48.738;9.306;2023-03-14T08:06:22;1.57;;;0.60;;
4652;SDS011;9900;48.738;9.306;2023-03-14T08:08:52;0.90;;;0.60;;
4652;SDS011;9900;48.738;9.306;2023-03-14T08:11:21;2.30;;;0.80;;
4652;SDS011;9900;48.738;9.306;2023-03-14T08:13:50;4.00;;;0.63;;
4652;SDS011;9900;48.738;9.306;2023-03-14T08:16:19;2.53;;;0.80;;
4652;SDS011;9900;48.738;9.306;2023-03-14T08:18:48;2.37;;;0.87;;
4652;SDS011;9900;48.738;9.306;2023-03-14T08:21:17;0.77;;;0.63;;
4652;SDS011;9900;48.738;9.306;2023-03-14T08:23:45;1.80;;;1.10;;
4652;SDS011;9900;48.738;9.306;2023-03-14T08:26:15;1.93;;;0.70;;
4652;SDS011;9900;48.738;9.306;2023-03-14T08:28:44;1.70;;;0.70;;
4652;SDS011;9900;48.738;9.306;2023-03-14T08:31:12;1.10;;;0.63;;
4652;SDS011;9900;48.738;9.306;2023-03-14T08:33:41;5.97;;;0.90;;
4652;SDS011;9900;48.738;9.306;2023-03-14T08:36:10;1.33;;;0.80;;
4652;SDS011;9900;48.738;9.306;2023-03-14T08:38:39;1.40;;;0.70;;
4652;SDS011;9900;48.738;9.306;2023-03-14T08:41:09;2.10;;;0.70;;
4652;SDS011;9900;48.738;9.306;2023-03-14T08:43:40;1.00;;;0.60;;
4652;SDS011;9900;48.738;9.306;2023-03-14T08:46:08;3.33;;;0.70;;
4652;SDS011;9900;48.738;9.306;2023-03-14T08:48:37;0.90;;;0.67;;
4652;SDS011;9900;48.738;9.306;2023-03-14T08:51:06;1.40;;;0.70;;
4652;SDS011;9900;48.738;9.306;2023-03-14T08:53:35;3.33;;;0.80;;
4652;SDS011;9900;48.738;9.306;2023-03-14T08:56:04;1.63;;;0.60;;
4652;SDS011;9900;48.738;9.306;2023-03-14T08:58:33;1.23;;;0.70;;
4652;SDS011;9900;48.738;9.306;2023-03-14T09:01:07;1.03;;;0.60;;
4652;SDS011;9900;48.738;9.306;2023-03-14T09:03:36;5.47;;;1.17;;
4652;SDS011;9900;48.738;9.306;2023-03-14T09:06:06;0.70;;;0.60;;
4652;SDS011;9900;48.738;9.306;2023-03-14T09:08:36;2.10;;;1.10;;
4652;SDS011;9900;48.738;9.306;2023-03-14T09:11:06;1.50;;;1.00;;
4652;SDS011;9900;48.738;9.306;2023-03-14T09:13:36;0.97;;;0.60;;
4652;SDS011;9900;48.738;9.306;2023-03-14T09:16:07;1.00;;;0.50;;
4652;SDS011;9900;48.738;9.306;2023-03-14T09:18:36;1.10;;;0.50;;
4652;SDS011;9900;48.738;9.306;2023-03-14T09:21:05;0.90;;;0.50;;
4652;SDS011;9900;48.738;9.306;2023-03-14T09:23:34;0.70;;;0.50;;
4652;SDS011;9900;48.738;9.306;2023-03-14T09:26:03;1.00;;;0.50;;
4652;SDS011;9900;48.738;9.306;2023-03-14T09:28:32;2.30;;;0.50;;
4652;SDS011;9900;48.738;9.306;2023-03-14T09:31:05;1.97;;;0.50;;
4652;SDS011;9900;48.738;9.306;2023-03-14T09:33:36;0.70;;;0.53;;
4652;SDS011;9900;48.738;9.306;2023-03-14T09:36:05;0.83;;;0.53;;
4652;SDS011;9900;48.738;9.306;2023-03-14T09:38:35;2.23;;;0.60;;
4652;SDS011;9900;48.738;9.306;2023-03-14T09:41:10;3.27;;;0.70;;
4652;SDS011;9900;48.738;9.306;2023-03-14T09:43:41;1.00;;;0.70;;
4652;SDS011;9900;48.738;9.306;2023-03-14T09:46:12;0.70;;;0.53;;
4652;SDS011;9900;48.738;9.306;2023-03-14T09:48:42;1.67;;;0.60;;
4652;SDS011;9900;48.738;9.306;2023-03-14T09:51:12;0.70;;;0.50;;
4652;SDS011;9900;48.738;9.306;2023-03-14T09:53:44;1.17;;;0.70;;
4652;SDS011;9900;48.738;9.306;2023-03-14T09:56:14;0.90;;;0.50;;
4652;SDS011;9900;48.738;9.306;2023-03-14T09:58:47;0.90;;;0.57;;
4652;SDS011;9900;48.738;9.306;2023-03-14T10:01:20;0.60;;;0.50;;
4652;SDS011;9900;48.738;9.306;2023-03-14T10:03:51;1.27;;;0.47;;
4652;SDS011;9900;48.738;9.306;2023-03-14T10:06:23;2.70;;;1.17;;
4652;SDS011;9900;48.738;9.306;2023-03-14T10:08:54;1.93;;;0.60;;
4652;SDS011;9900;48.738;9.306;2023-03-14T10:11:24;0.90;;;0.60;;
4652;SDS011;9900;48.738;9.306;2023-03-14T10:14:04;1.33;;;0.60;;
4652;SDS011;9900;48.738;9.306;2023-03-14T10:16:36;0.97;;;0.60;;
4652;SDS011;9900;48.738;9.306;2023-03-14T10:19:10;5.70;;;0.60;;
4652;SDS011;9900;48.738;9.306;2023-03-14T10:21:40;1.10;;;0.50;;
4652;SDS011;9900;48.738;9.306;2023-03-14T10:24:16;0.80;;;0.70;;
4652;SDS011;9900;48.738;9.306;2023-03-14T10:26:48;0.70;;;0.53;;
4652;SDS011;9900;48.738;9.306;2023-03-14T10:29:18;1.17;;;0.60;;
4652;SDS011;9900;48.738;9.306;2023-03-14T10:31:52;0.77;;;0.60;;
4652;SDS011;9900;48.738;9.306;2023-03-14T10:34:24;1.57;;;0.60;;
4652;SDS011;9900;48.738;9.306;2023-03-14T10:36:55;2.60;;;0.90;;
4652;SDS011;9900;48.738;9.306;2023-03-14T10:39:36;1.00;;;0.50;;
4652;SDS011;9900;48.738;9.306;2023-03-14T10:42:12;1.00;;;0.60;;
4652;SDS011;9900;48.738;9.306;2023-03-14T10:44:44;1.77;;;0.50;;
4652;SDS011;9900;48.738;9.306;2023-03-14T10:47:16;1.70;;;0.50;;
4652;SDS011;9900;48.738;9.306;2023-03-14T10:49:46;1.00;;;0.57;;
4652;SDS011;9900;48.738;9.306;2023-03-14T10:52:19;2.50;;;0.40;;
4652;SDS011;9900;48.738;9.306;2023-03-14T10:55:09;1.63;;;0.57;;
4652;SDS011;9900;48.738;9.306;2023-03-14T10:57:39;0.70;;;0.50;;
4652;SDS011;9900;48.738;9.306;2023-03-14T11:00:11;2.20;;;1.23;;
4652;SDS011;9900;48.738;9.306;2023-03-14T11:02:49;0.67;;;0.50;;
4652;SDS011;9900;48.738;9.306;2023-03-14T11:05:27;3.63;;;0.60;;
4652;SDS011;9900;48.738;9.306;2023-03-14T11:08:00;1.00;;;0.50;;
4652;SDS011;9900;48.738;9.306;2023-03-14T11:10:31;1.53;;;0.50;;
4652;SDS011;9900;48.738;9.306;2023-03-14T11:13:02;0.87;;;0.60;;
4652;SDS011;9900;48.738;9.306;2023-03-14T11:15:40;0.80;;;0.50;;
4652;SDS011;9900;48.738;9.306;2023-03-14T11:18:19;1.20;;;0.70;;
4652;SDS011;9900;48.738;9.306;2023-03-14T11:21:07;4.80;;;0.50;;
4652;SDS011;9900;48.738;9.306;2023-03-14T11:23:40;0.70;;;0.50;;
4652;SDS011;9900;48.738;9.306;2023-03-14T11:26:14;0.90;;;0.60;;
4652;SDS011;9900;48.738;9.306;2023-03-14T11:28:50;4.13;;;0.70;;
4652;SDS011;9900;48.738;9.306;2023-03-14T11:31:20;0.63;;;0.50;;
4652;SDS011;9900;48.738;9.306;2023-03-14T11:33:59;0.87;;;0.60;;
4652;SDS011;9900;48.738;9.306;2023-03-14T11:36:31;0.60;;;0.43;;
4652;SDS011;9900;48.738;9.306;2023-03-14T11:39:01;1.20;;;0.73;;
4652;SDS011;9900;48.738;9.306;2023-03-14T11:41:31;2.40;;;0.80;;
4652;SDS011;9900;48.738;9.306;2023-03-14T11:44:03;1.93;;;0.70;;
4652;SDS011;9900;48.738;9.306;2023-03-14T11:46:33;0.73;;;0.43;;
4652;SDS011;9900;48.738;9.306;2023-03-14T11:49:05;0.70;;;0.53;;
4652;SDS011;9900;48.738;9.306;2023-03-14T11:51:36;0.70;;;0.57;;
4652;SDS011;9900;48.738;9.306;2023-03-14T11:54:10;0.80;;;0.57;;
4652;SDS011;9900;48.738;9.306;2023-03-14T11:56:44;0.70;;;0.50;;
4652;SDS011;9900;48.738;9.306;2023-03-14T11:59:17;0.60;;;0.50;;
4652;SDS011;9900;48.738;9.306;2023-03-14T12:01:53;1.27;;;0.80;;
4652;SDS011;9900;48.738;9.306;2023-03-14T12:07:16;0.90;;;0.57;;
4652;SDS011;9900;48.738;9.306;2023-03-14T12:09:47;0.60;;;0.50;;
4652;SDS011;9900;48.738;9.306;2023-03-14T12:12:17;5.60;;;0.60;;
4652;SDS011;9900;48.738;9.306;2023-03-14T12:14:52;4.73;;;0.60;;
4652;SDS011;9900;48.738;9.306;2023-03-14T12:17:24;0.90;;;0.50;;
4652;SDS011;9900;48.738;9.306;2023-03-14T12:20:01;0.73;;;0.50;;
4652;SDS011;9900;48.738;9.306;2023-03-14T12:22:34;1.17;;;0.50;;
4652;SDS011;9900;48.738;9.306;2023-03-14T12:25:05;0.80;;;0.50;;
4652;SDS011;9900;48.738;9.306;2023-03-14T12:27:45;0.60;;;0.40;;
4652;SDS011;9900;48.738;9.306;2023-03-14T12:30:41;1.07;;;0.60;;
4652;SDS011;9900;48.738;9.306;2023-03-14T12:33:11;0.90;;;0.60;;
4652;SDS011;9900;48.738;9.306;2023-03-14T12:35:44;1.30;;;0.60;;
4652;SDS011;9900;48.738;9.306;2023-03-14T12:38:15;1.10;;;0.60;;
4652;SDS011;9900;48.738;9.306;2023-03-14T12:40:48;0.60;;;0.50;;
4652;SDS011;9900;48.738;9.306;2023-03-14T12:43:26;2.20;;;0.80;;
4652;SDS011;9900;48.738;9.306;2023-03-14T12:46:15;2.73;;;0.60;;
4652;SDS011;9900;48.738;9.306;2023-03-14T12:48:54;2.40;;;0.70;;
4652;SDS011;9900;48.738;9.306;2023-03-14T12:51:29;0.60;;;0.50;;
4652;SDS011;9900;48.738;9.306;2023-03-14T12:54:12;0.60;;;0.50;;
4652;SDS011;9900;48.738;9.306;2023-03-14T12:56:54;2.27;;;0.73;;
4652;SDS011;9900;48.738;9.306;2023-03-14T12:59:33;0.70;;;0.53;;
4652;SDS011;9900;48.738;9.306;2023-03-14T13:02:14;1.70;;;0.60;;
4652;SDS011;9900;48.738;9.306;2023-03-14T13:04:48;0.97;;;0.57;;
4652;SDS011;9900;48.738;9.306;2023-03-14T13:07:30;0.80;;;0.60;;
4652;SDS011;9900;48.738;9.306;2023-03-14T13:10:04;1.10;;;0.70;;
4652;SDS011;9900;48.738;9.306;2023-03-14T13:12:48;1.30;;;0.70;;
4652;SDS011;9900;48.738;9.306;2023-03-14T13:15:23;1.10;;;0.70;;
4652;SDS011;9900;48.738;9.306;2023-03-14T13:17:55;1.40;;;0.83;;
4652;SDS011;9900;48.738;9.306;2023-03-14T13:20:28;2.13;;;0.60;;
4652;SDS011;9900;48.738;9.306;2023-03-14T13:23:00;1.53;;;0.70;;
4652;SDS011;9900;48.738;9.306;2023-03-14T13:25:29;1.83;;;0.83;;
4652;SDS011;9900;48.738;9.306;2023-03-14T13:27:58;3.23;;;0.90;;
4652;SDS011;9900;48.738;9.306;2023-03-14T13:30:28;2.03;;;0.70;;
4652;SDS011;9900;48.738;9.306;2023-03-14T13:33:04;2.30;;;0.90;;
4652;SDS011;9900;48.738;9.306;2023-03-14T13:35:38;1.47;;;0.80;;
4652;SDS011;9900;48.738;9.306;2023-03-14T13:38:14;5.63;;;0.70;;
4652;SDS011;9900;48.738;9.306;2023-03-14T13:40:45;3.47;;;0.60;;
4652;SDS011;9900;48.738;9.306;2023-03-14T13:43:16;0.80;;;0.70;;
4652;SDS011;9900;48.738;9.306;2023-03-14T13:45:50;8.20;;;1.10;;
4652;SDS011;9900;48.738;9.306;2023-03-14T13:48:20;1.90;;;0.70;;
4652;SDS011;9900;48.738;9.306;2023-03-14T13:50:51;1.50;;;0.80;;
4652;SDS011;9900;48.738;9.306;2023-03-14T13:53:23;2.93;;;0.70;;
4652;SDS011;9900;48.738;9.306;2023-03-14T13:55:52;2.30;;;0.70;;
4652;SDS011;9900;48.738;9.306;2023-03-14T13:58:22;5.13;;;0.67;;
4652;SDS011;9900;48.738;9.306;2023-03-14T14:00:53;1.43;;;0.67;;
4652;SDS011;9900;48.738;9.306;2023-03-14T14:03:24;1.93;;;0.80;;
4652;SDS011;9900;48.738;9.306;2023-03-14T14:05:54;1.30;;;0.80;;
4652;SDS011;9900;48.738;9.306;2023-03-14T14:08:25;1.30;;;0.70;;
4652;SDS011;9900;48.738;9.306;2023-03-14T14:10:56;2.43;;;1.00;;
4652;SDS011;9900;48.738;9.306;2023-03-14T14:13:27;1.83;;;0.80;;
4652;SDS011;9900;48.738;9.306;2023-03-14T14:15:57;3.00;;;0.83;;
4652;SDS011;9900;48.738;9.306;2023-03-14T14:18:28;3.67;;;0.77;;
4652;SDS011;9900;48.738;9.306;2023-03-14T14:20:58;2.33;;;0.70;;
4652;SDS011;9900;48.738;9.306;2023-03-14T14:23:28;1.90;;;0.67;;
4652;SDS011;9900;48.738;9.306;2023-03-14T14:25:58;1.23;;;0.60;;
4652;SDS011;9900;48.738;9.306;2023-03-14T14:28:28;5.80;;;0.50;;
4652;SDS011;9900;48.738;9.306;2023-03-14T14:31:02;11.10;;;0.70;;
4652;SDS011;9900;48.738;9.306;2023-03-14T14:33:45;3.87;;;0.70;;
4652;SDS011;9900;48.738;9.306;2023-03-14T14:36:18;1.70;;;0.70;;
4652;SDS011;9900;48.738;9.306;2023-03-14T14:38:57;1.67;;;0.60;;
4652;SDS011;9900;48.738;9.306;2023-03-14T14:41:27;1.80;;;1.00;;
4652;SDS011;9900;48.738;9.306;2023-03-14T14:43:58;1.57;;;0.80;;
4652;SDS011;9900;48.738;9.306;2023-03-14T14:46:28;2.33;;;0.50;;
4652;SDS011;9900;48.738;9.306;2023-03-14T14:49:02;2.20;;;0.87;;
4652;SDS011;9900;48.738;9.306;2023-03-14T14:51:33;1.37;;;0.67;;
4652;SDS011;9900;48.738;9.306;2023-03-14T14:54:09;2.70;;;0.70;;
4652;SDS011;9900;48.738;9.306;2023-03-14T14:56:39;1.27;;;0.60;;
4652;SDS011;9900;48.738;9.306;2023-03-14T14:59:18;1.80;;;0.70;;
4652;SDS011;9900;48.738;9.306;2023-03-14T15:01:49;2.20;;;0.97;;
4652;SDS011;9900;48.738;9.306;2023-03-14T15:04:19;2.80;;;0.90;;
4652;SDS011;9900;48.738;9.306;2023-03-14T15:06:48;6.17;;;0.80;;
4652;SDS011;9900;48.738;9.306;2023-03-14T15:09:19;2.90;;;0.80;;
4652;SDS011;9900;48.738;9.306;2023-03-14T15:11:48;2.77;;;1.40;;
4652;SDS011;9900;48.738;9.306;2023-03-14T15:14:17;1.70;;;0.80;;
4652;SDS011;9900;48.738;9.306;2023-03-14T15:16:46;4.40;;;0.90;;
4652;SDS011;9900;48.738;9.306;2023-03-14T15:19:16;2.70;;;0.80;;
4652;SDS011;9900;48.738;9.306;2023-03-14T15:21:51;2.60;;;0.80;;
4652;SDS011;9900;48.738;9.306;2023-03-14T15:24:22;2.23;;;0.80;;
4652;SDS011;9900;48.738;9.306;2023-03-14T15:26:51;1.33;;;0.67;;
4652;SDS011;9900;48.738;9.306;2023-03-14T15:29:20;2.47;;;0.77;;
4652;SDS011;9900;48.738;9.306;2023-03-14T15:31:48;1.50;;;0.70;;
4652;SDS011;9900;48.738;9.306;2023-03-14T15:34:17;3.10;;;0.97;;
4652;SDS011;9900;48.738;9.306;2023-03-14T15:36:46;2.40;;;0.83;;
4652;SDS011;9900;48.738;9.306;2023-03-14T15:39:15;5.13;;;0.90;;
4652;SDS011;9900;48.738;9.306;2023-03-14T15:41:45;2.40;;;0.60;;